createdAt,value
2019-05-18T00:00:55.056Z,96023.97
2019-05-18T00:02:30.213Z,96025.66
2019-05-18T00:04:06.138Z,96032.01
2019-05-18T00:05:41.764Z,96034.91
2019-05-18T00:07:32.208Z,96031.41
2019-05-18T00:09:12.626Z,96037.31
2019-05-18T00:10:49.014Z,96037.31
2019-05-18T00:12:42.824Z,96043.52
2019-05-18T00:14:19.351Z,96036.70
2019-05-18T00:15:59.478Z,96039.73
2019-05-18T00:17:35.065Z,96041.55
2019-05-18T00:19:11.488Z,96040.48
2019-05-18T00:20:47.203Z,96034.99
2019-05-18T00:22:22.726Z,96029.37
2019-05-18T00:23:59.551Z,96031.59
2019-05-18T00:25:35.095Z,96020.25
2019-05-18T00:27:17.634Z,96015.09
2019-05-18T00:28:56.071Z,96009.44
2019-05-18T00:30:34.649Z,96007.77
2019-05-18T00:32:10.363Z,96003.78
2019-05-18T00:33:45.573Z,96002.20
2019-05-18T00:35:24.376Z,95996.73
2019-05-18T00:36:59.727Z,95995.97
2019-05-18T00:38:37.485Z,96005.65
2019-05-18T00:40:14.388Z,96007.54
2019-05-18T00:41:50.135Z,96001.77
2019-05-18T00:43:25.854Z,96010.53
2019-05-18T00:45:03.424Z,96012.70
2019-05-18T00:46:38.587Z,96026.20
2019-05-18T00:48:17.240Z,96022.83
2019-05-18T00:49:53.975Z,96024.50
2019-05-18T00:51:29.653Z,96027.41
2019-05-18T00:53:07.678Z,96017.97
2019-05-18T00:54:43.470Z,96016.64
2019-05-18T00:56:18.621Z,96021.19
2019-05-18T00:57:54.536Z,96028.62
2019-05-18T00:59:29.710Z,96027.25
2019-05-18T01:01:11.445Z,96035.45
2019-05-18T01:02:47.644Z,96024.80
2019-05-18T01:04:25.756Z,96027.83
2019-05-18T01:06:01.500Z,96025.41
2019-05-18T01:07:37.164Z,96022.98
2019-05-18T01:09:13.092Z,96021.61
2019-05-18T01:10:50.528Z,96020.70
2019-05-18T01:12:26.376Z,96015.84
2019-05-18T01:14:02.128Z,96017.21
2019-05-18T01:15:38.630Z,96010.08
2019-05-18T01:17:13.758Z,96010.98
2019-05-18T01:18:49.813Z,96010.05
2019-05-18T01:20:24.972Z,96007.47
2019-05-18T01:22:00.809Z,96000.94
2019-05-18T01:23:36.804Z,95994.25
2019-05-18T01:25:15.307Z,95990.77
2019-05-18T01:26:50.360Z,95988.00
2019-05-18T01:28:26.101Z,95987.70
2019-05-18T01:30:03.081Z,95991.80
2019-05-18T01:31:38.683Z,95992.69
2019-05-18T01:33:13.839Z,95989.20
2019-05-18T01:34:54.888Z,95982.78
2019-05-18T01:36:31.827Z,95983.06
2019-05-18T01:38:10.493Z,95978.92
2019-05-18T01:39:47.403Z,95970.70
2019-05-18T01:41:23.121Z,95967.16
2019-05-18T01:42:58.329Z,95968.50
2019-05-18T01:44:34.365Z,95963.14
2019-05-18T01:46:09.809Z,95964.02
2019-05-18T01:47:49.361Z,95964.02
2019-05-18T01:49:37.461Z,95966.44
2019-05-18T01:51:13.165Z,95966.31
2019-05-18T01:52:48.282Z,95966.16
2019-05-18T01:54:24.109Z,95965.30
2019-05-18T01:55:59.172Z,95962.15
2019-05-18T01:57:34.850Z,95966.75
2019-05-18T01:59:10.289Z,95970.70
2019-05-18T02:00:52.706Z,95979.84
2019-05-18T02:02:28.428Z,95977.30
2019-05-18T02:04:04.295Z,95983.38
2019-05-18T02:05:39.448Z,95984.29
2019-05-18T02:07:19.435Z,95992.17
2019-05-18T02:08:54.531Z,95997.05
2019-05-18T02:10:30.996Z,95990.83
2019-05-18T02:12:06.229Z,95993.09
2019-05-18T02:13:42.163Z,95994.31
2019-05-18T02:15:17.597Z,95995.22
2019-05-18T02:16:57.071Z,95995.22
2019-05-18T02:18:32.626Z,96000.83
2019-05-18T02:20:08.188Z,96006.14
2019-05-18T02:21:43.605Z,96006.56
2019-05-18T02:23:21.330Z,96011.56
2019-05-18T02:24:56.702Z,96020.67
2019-05-18T02:26:32.798Z,96020.52
2019-05-18T02:28:07.903Z,96024.32
2019-05-18T02:29:43.908Z,96027.81
2019-05-18T02:31:20.220Z,96024.02
2019-05-18T02:32:57.323Z,96026.14
2019-05-18T02:34:33.106Z,96025.97
2019-05-18T02:36:08.673Z,96024.16
2019-05-18T02:37:44.511Z,96022.80
2019-05-18T02:39:21.224Z,96025.22
2019-05-18T02:40:56.536Z,96029.31
2019-05-18T02:42:32.635Z,96025.83
2019-05-18T02:44:07.926Z,96023.09
2019-05-18T02:45:43.685Z,96025.23
2019-05-18T02:47:19.115Z,96030.24
2019-05-18T02:48:55.235Z,96025.42
2019-05-18T02:50:31.712Z,96035.14
2019-05-18T02:52:07.562Z,96034.08
2019-05-18T02:53:42.725Z,96028.45
2019-05-18T02:55:20.380Z,96033.93
2019-05-18T02:56:55.604Z,96036.81
2019-05-18T02:58:31.511Z,96035.61
2019-05-18T03:00:23.567Z,96036.55
2019-05-18T03:02:00.062Z,96041.56
2019-05-18T03:03:35.388Z,96030.95
2019-05-18T03:05:11.243Z,96030.22
2019-05-18T03:06:46.379Z,96031.59
2019-05-18T03:08:22.244Z,96027.65
2019-05-18T03:09:57.587Z,96032.20
2019-05-18T03:11:33.852Z,96032.20
2019-05-18T03:13:09.335Z,96035.88
2019-05-18T03:14:45.109Z,96036.48
2019-05-18T03:16:22.403Z,96039.66
2019-05-18T03:17:58.369Z,96038.17
2019-05-18T03:19:34.239Z,96035.59
2019-05-18T03:21:10.087Z,96034.86
2019-05-18T03:22:46.333Z,96030.16
2019-05-18T03:24:22.054Z,96031.52
2019-05-18T03:25:58.369Z,96038.50
2019-05-18T03:27:36.677Z,96035.64
2019-05-18T03:29:11.790Z,96033.82
2019-05-18T03:30:50.032Z,96041.25
2019-05-18T03:32:27.315Z,96038.66
2019-05-18T03:34:05.372Z,96040.36
2019-05-18T03:35:40.559Z,96045.66
2019-05-18T03:37:16.223Z,96048.52
2019-05-18T03:38:51.305Z,96048.70
2019-05-18T03:40:30.146Z,96055.05
2019-05-18T03:42:05.283Z,96053.67
2019-05-18T03:43:40.909Z,96055.97
2019-05-18T03:45:17.298Z,96057.92
2019-05-18T03:46:53.970Z,96065.05
2019-05-18T03:48:29.357Z,96068.08
2019-05-18T03:50:05.145Z,96070.03
2019-05-18T03:51:40.607Z,96067.94
2019-05-18T03:53:18.313Z,96077.48
2019-05-18T03:54:53.257Z,96077.61
2019-05-18T03:56:42.588Z,96075.05
2019-05-18T03:58:18.236Z,96083.06
2019-05-18T03:59:53.373Z,96090.35
2019-05-18T04:01:28.975Z,96090.80
2019-05-18T04:03:04.074Z,96094.28
2019-05-18T04:04:40.062Z,96092.92
2019-05-18T04:06:15.343Z,96100.05
2019-05-18T04:07:50.938Z,96097.92
2019-05-18T04:09:26.004Z,96098.52
2019-05-18T04:11:02.103Z,96100.33
2019-05-18T04:12:38.653Z,96096.66
2019-05-18T04:14:15.006Z,96093.47
2019-05-18T04:15:50.193Z,96095.28
2019-05-18T04:17:28.811Z,96095.73
2019-05-18T04:19:04.406Z,96098.92
2019-05-18T04:20:40.367Z,96098.77
2019-05-18T04:22:15.438Z,96103.17
2019-05-18T04:23:51.133Z,96113.53
2019-05-18T04:25:28.910Z,96118.38
2019-05-18T04:27:05.045Z,96123.09
2019-05-18T04:28:41.209Z,96124.78
2019-05-18T04:30:17.266Z,96128.87
2019-05-18T04:31:53.821Z,96125.53
2019-05-18T04:33:29.756Z,96121.16
2019-05-18T04:35:04.946Z,96126.75
2019-05-18T04:36:43.108Z,96125.85
2019-05-18T04:38:18.760Z,96126.90
2019-05-18T04:39:55.214Z,96127.67
2019-05-18T04:41:30.290Z,96124.77
2019-05-18T04:43:05.980Z,96121.28
2019-05-18T04:44:46.380Z,96120.96
2019-05-18T04:46:25.096Z,96122.78
2019-05-18T04:48:02.381Z,96125.98
2019-05-18T04:49:37.972Z,96117.75
2019-05-18T04:51:13.156Z,96111.98
2019-05-18T04:52:48.819Z,96111.34
2019-05-18T04:54:24.116Z,96103.30
2019-05-18T04:56:03.210Z,96094.91
2019-05-18T04:57:38.601Z,96081.52
2019-05-18T04:59:14.270Z,96077.85
2019-05-18T05:00:49.530Z,96071.41
2019-05-18T05:02:25.487Z,96063.05
2019-05-18T05:04:01.256Z,96057.67
2019-05-18T05:05:37.294Z,96045.47
2019-05-18T05:07:26.344Z,96035.75
2019-05-18T05:09:01.996Z,96023.69
2019-05-18T05:10:37.098Z,96019.72
2019-05-18T05:12:13.062Z,96008.16
2019-05-18T05:13:48.129Z,96006.48
2019-05-18T05:15:23.881Z,96006.30
2019-05-18T05:17:00.845Z,95997.58
2019-05-18T05:18:36.433Z,95992.98
2019-05-18T05:20:19.648Z,95984.63
2019-05-18T05:21:49.392Z,95982.03
2019-05-18T05:23:27.106Z,95980.47
2019-05-18T05:25:10.589Z,95980.17
2019-05-18T05:26:52.524Z,95974.44
2019-05-18T05:28:30.374Z,95976.59
2019-05-18T05:30:09.758Z,95971.70
2019-05-18T05:31:51.498Z,95969.20
2019-05-18T05:33:46.648Z,95962.79
2019-05-18T05:35:28.323Z,95963.63
2019-05-18T05:37:18.409Z,95961.15
2019-05-18T05:39:29.316Z,95961.59
2019-05-18T05:41:07.169Z,95961.59
2019-05-18T05:42:42.838Z,95953.31
2019-05-18T05:44:17.959Z,95953.96
2019-05-18T05:45:55.302Z,95954.53
2019-05-18T05:47:30.613Z,95954.68
2019-05-18T05:49:08.968Z,95950.39
2019-05-18T05:50:46.566Z,95950.57
2019-05-18T05:52:26.115Z,95953.20
2019-05-18T05:54:06.117Z,95951.64
2019-05-18T05:55:42.069Z,95952.89
2019-05-18T05:57:17.124Z,95942.38
2019-05-18T05:58:59.338Z,95938.50
2019-05-18T06:00:35.097Z,95933.70
2019-05-18T06:02:10.268Z,95936.25
2019-05-18T06:03:45.955Z,95934.52
2019-05-18T06:05:21.147Z,95934.86
2019-05-18T06:06:59.998Z,95932.40
2019-05-18T06:08:35.599Z,95931.50
2019-05-18T06:10:14.037Z,95932.34
2019-05-18T06:11:49.100Z,95921.83
2019-05-18T06:13:24.721Z,95915.87
2019-05-18T06:15:00.239Z,95909.55
2019-05-18T06:16:41.887Z,95905.81
2019-05-18T06:18:17.047Z,95899.58
2019-05-18T06:19:53.511Z,95906.55
2019-05-18T06:21:30.900Z,95906.59
2019-05-18T06:23:06.572Z,95900.47
2019-05-18T06:24:43.643Z,95905.61
2019-05-18T06:26:24.255Z,95904.73
2019-05-18T06:28:03.233Z,95901.77
2019-05-18T06:29:40.295Z,95899.53
2019-05-18T06:31:19.209Z,95894.17
2019-05-18T06:32:55.043Z,95890.20
2019-05-18T06:34:30.211Z,95882.50
2019-05-18T06:36:09.369Z,95878.59
2019-05-18T06:37:47.557Z,95880.79
2019-05-18T06:39:23.392Z,95875.77
2019-05-18T06:40:59.798Z,95874.09
2019-05-18T06:42:37.548Z,95876.72
2019-05-18T06:44:13.556Z,95882.42
2019-05-18T06:45:51.118Z,95877.98
2019-05-18T06:47:26.429Z,95874.62
2019-05-18T06:49:02.501Z,95879.22
2019-05-18T06:50:37.898Z,95869.76
2019-05-18T06:52:13.603Z,95872.31
2019-05-18T06:53:50.319Z,95872.38
2019-05-18T06:55:26.659Z,95868.25
2019-05-18T06:57:02.117Z,95871.13
2019-05-18T06:58:44.048Z,95863.38
2019-05-18T07:00:21.690Z,95871.65
2019-05-18T07:01:57.298Z,95866.17
2019-05-18T07:03:33.657Z,95866.52
2019-05-18T07:05:09.986Z,95870.16
2019-05-18T07:06:45.673Z,95867.77
2019-05-18T07:08:25.546Z,95862.37
2019-05-18T07:10:00.678Z,95859.31
2019-05-18T07:11:39.350Z,95857.18
2019-05-18T07:13:21.702Z,95854.17
2019-05-18T07:15:00.219Z,95855.63
2019-05-18T07:16:43.094Z,95857.41
2019-05-18T07:18:19.705Z,95852.88
2019-05-18T07:20:01.083Z,95848.53
2019-05-18T07:21:39.779Z,95851.66
2019-05-18T07:23:15.046Z,95849.47
2019-05-18T07:24:51.179Z,95846.63
2019-05-18T07:26:26.991Z,95852.52
2019-05-18T07:28:03.457Z,95849.98
2019-05-18T07:29:40.632Z,95853.55
2019-05-18T07:31:18.023Z,95855.17
2019-05-18T07:33:03.064Z,95853.52
2019-05-18T07:34:39.333Z,95854.52
2019-05-18T07:36:17.990Z,95852.06
2019-05-18T07:37:58.802Z,95855.45
2019-05-18T07:39:37.789Z,95847.90
2019-05-18T07:41:13.574Z,95853.50
2019-05-18T07:42:48.783Z,95849.88
2019-05-18T07:44:25.046Z,95855.40
2019-05-18T07:46:00.931Z,95851.69
2019-05-18T07:47:36.701Z,95855.17
2019-05-18T07:49:11.872Z,95854.77
2019-05-18T07:50:48.169Z,95862.44
2019-05-18T07:52:26.627Z,95860.48
2019-05-18T07:54:06.550Z,95869.30
2019-05-18T07:55:42.675Z,95866.52
2019-05-18T07:57:18.927Z,95864.58
2019-05-18T07:58:54.459Z,95869.42
2019-05-18T08:00:34.877Z,95860.66
2019-05-18T08:02:26.306Z,95867.98
2019-05-18T08:04:24.767Z,95872.83
2019-05-18T08:06:03.239Z,95863.61
2019-05-18T08:07:42.434Z,95868.57
2019-05-18T08:09:17.864Z,95862.56
2019-05-18T08:10:55.914Z,95864.44
2019-05-18T08:12:41.105Z,95874.65
2019-05-18T08:14:17.919Z,95870.97
2019-05-18T08:15:55.010Z,95863.58
2019-05-18T08:17:31.199Z,95864.59
2019-05-18T08:19:06.856Z,95874.78
2019-05-18T08:20:42.312Z,95872.34
2019-05-18T08:22:22.339Z,95878.86
2019-05-18T08:24:01.313Z,95878.64
2019-05-18T08:25:45.702Z,95876.98
2019-05-18T08:27:29.220Z,95871.08
2019-05-18T08:29:07.730Z,95882.90
2019-05-18T08:30:47.763Z,95877.16
2019-05-18T08:32:27.984Z,95878.09
2019-05-18T08:34:06.809Z,95878.53
2019-05-18T08:35:42.988Z,95877.03
2019-05-18T08:37:19.740Z,95874.57
2019-05-18T08:38:59.819Z,95881.52
2019-05-18T08:40:36.517Z,95883.34
2019-05-18T08:42:19.833Z,95879.50
2019-05-18T08:43:54.992Z,95881.09
2019-05-18T08:45:40.878Z,95883.13
2019-05-18T08:47:21.460Z,95879.79
2019-05-18T08:48:57.785Z,95879.94
2019-05-18T08:50:34.913Z,95883.55
2019-05-18T08:52:10.902Z,95879.06
2019-05-18T08:53:46.054Z,95881.60
2019-05-18T08:55:22.408Z,95883.03
2019-05-18T08:56:57.948Z,95882.81
2019-05-18T08:58:37.132Z,95879.96
2019-05-18T09:00:14.426Z,95880.41
2019-05-18T09:01:51.627Z,95884.31
2019-05-18T09:03:31.076Z,95883.48
2019-05-18T09:05:09.629Z,95882.35
2019-05-18T09:06:44.942Z,95875.85
2019-05-18T09:08:21.533Z,95871.38
2019-05-18T09:10:00.811Z,95875.27
2019-05-18T09:11:36.738Z,95880.66
2019-05-18T09:13:13.264Z,95871.45
2019-05-18T09:14:52.645Z,95865.81
2019-05-18T09:16:27.994Z,95854.64
2019-05-18T09:18:04.998Z,95848.64
2019-05-18T09:19:40.909Z,95842.53
2019-05-18T09:21:23.060Z,95834.13
2019-05-18T09:22:59.925Z,95832.19
2019-05-18T09:24:36.980Z,95831.98
2019-05-18T09:26:12.293Z,95826.41
2019-05-18T09:27:51.524Z,95765.80
2019-05-18T09:29:30.555Z,95674.82
2019-05-18T09:31:06.723Z,95663.12
2019-05-18T09:32:45.692Z,95816.00
2019-05-18T09:34:25.844Z,95846.44
2019-05-18T09:36:05.183Z,95846.34
2019-05-18T09:37:41.241Z,95844.91
2019-05-18T09:39:23.820Z,95843.66
2019-05-18T09:41:03.743Z,95846.17
2019-05-18T09:42:40.677Z,95850.72
2019-05-18T09:44:20.322Z,95843.17
2019-05-18T09:45:56.245Z,95852.96
2019-05-18T09:47:35.185Z,95848.31
2019-05-18T09:49:11.326Z,95852.31
2019-05-18T09:50:49.770Z,95850.61
2019-05-18T09:52:44.258Z,95847.11
2019-05-18T09:54:18.816Z,95834.88
2019-05-18T09:55:59.387Z,95837.05
2019-05-18T09:57:47.498Z,95842.23
2019-05-18T09:59:32.489Z,95841.31
2019-05-18T10:01:29.526Z,95850.07
2019-05-18T10:03:09.856Z,95850.91
2019-05-18T10:04:52.639Z,95845.16
2019-05-18T10:06:39.374Z,95854.30
2019-05-18T10:08:14.430Z,95848.41
2019-05-18T10:09:54.176Z,95854.82
2019-05-18T10:11:39.016Z,95847.51
2019-05-18T10:13:21.778Z,95850.30
2019-05-18T10:15:02.580Z,95859.69
2019-05-18T10:16:39.459Z,95854.50
2019-05-18T10:18:15.958Z,95863.66
2019-05-18T10:19:51.614Z,95867.45
2019-05-18T10:21:27.286Z,95866.56
2019-05-18T10:23:12.271Z,95863.37
2019-05-18T10:24:46.044Z,95872.19
2019-05-18T10:26:22.407Z,95867.19
2019-05-18T10:27:58.008Z,95866.76
2019-05-18T10:29:34.075Z,95856.92
2019-05-18T10:31:12.375Z,95860.80
2019-05-18T10:32:48.586Z,95858.78
2019-05-18T10:34:24.358Z,95856.58
2019-05-18T10:36:00.359Z,95859.85
2019-05-18T10:37:38.303Z,95862.29
2019-05-18T10:39:14.622Z,95864.22
2019-05-18T10:40:50.317Z,95871.95
2019-05-18T10:42:26.550Z,95871.68
2019-05-18T10:44:01.717Z,95870.14
2019-05-18T10:45:44.520Z,95869.66
2019-05-18T10:47:22.158Z,95862.63
2019-05-18T10:48:59.842Z,95861.70
2019-05-18T10:50:42.409Z,95866.17
2019-05-18T10:52:22.955Z,95858.92
2019-05-18T10:53:58.491Z,95856.36
2019-05-18T10:55:46.854Z,95861.92
2019-05-18T10:57:24.396Z,95856.47
2019-05-18T10:59:04.353Z,95857.50
2019-05-18T11:00:45.371Z,95860.06
2019-05-18T11:02:29.079Z,95859.92
2019-05-18T11:04:08.180Z,95858.67
2019-05-18T11:05:50.925Z,95860.20
2019-05-18T11:07:30.781Z,95866.70
2019-05-18T11:09:10.871Z,95863.77
2019-05-18T11:10:50.621Z,95861.09
2019-05-18T11:12:27.010Z,95860.53
2019-05-18T11:14:05.227Z,95860.02
2019-05-18T11:15:43.801Z,95856.28
2019-05-18T11:17:22.323Z,95851.70
2019-05-18T11:19:02.272Z,95850.91
2019-05-18T11:20:38.034Z,95848.88
2019-05-18T11:22:19.032Z,95854.75
2019-05-18T11:23:54.562Z,95852.61
2019-05-18T11:25:30.339Z,95850.16
2019-05-18T11:27:08.311Z,95857.96
2019-05-18T11:28:45.421Z,95853.89
2019-05-18T11:30:21.612Z,95851.94
2019-05-18T11:32:04.366Z,95856.32
2019-05-18T11:33:39.656Z,95851.62
2019-05-18T11:35:18.021Z,95850.48
2019-05-18T11:36:55.466Z,95848.40
2019-05-18T11:38:36.374Z,95847.14
2019-05-18T11:40:16.437Z,95849.58
2019-05-18T11:41:53.383Z,95854.64
2019-05-18T11:43:30.577Z,95853.01
2019-05-18T11:45:08.358Z,95848.34
2019-05-18T11:46:46.791Z,95856.25
2019-05-18T11:48:25.430Z,95852.08
2019-05-18T11:50:01.153Z,95850.91
2019-05-18T11:51:40.181Z,95858.50
2019-05-18T11:53:15.983Z,95852.94
2019-05-18T11:54:51.341Z,95852.52
2019-05-18T11:56:29.227Z,95849.23
2019-05-18T11:58:04.776Z,95852.55
2019-05-18T11:59:42.870Z,95858.45
2019-05-18T12:01:24.215Z,95854.29
2019-05-18T12:03:03.207Z,95858.02
2019-05-18T12:04:39.171Z,95860.16
2019-05-18T12:06:18.166Z,95861.39
2019-05-18T12:08:00.329Z,95859.25
2019-05-18T12:09:39.163Z,95858.92
2019-05-18T12:11:18.958Z,95853.27
2019-05-18T12:12:58.324Z,95846.30
2019-05-18T12:14:34.196Z,95850.95
2019-05-18T12:16:31.626Z,95852.34
2019-05-18T12:18:14.159Z,95847.83
2019-05-18T12:19:58.287Z,95852.95
2019-05-18T12:21:39.214Z,95847.86
2019-05-18T12:23:15.061Z,95848.41
2019-05-18T12:24:50.219Z,95847.72
2019-05-18T12:26:31.185Z,95853.27
2019-05-18T12:28:18.553Z,95850.06
2019-05-18T12:29:57.682Z,95851.05
2019-05-18T12:31:42.444Z,95855.75
2019-05-18T12:33:19.011Z,95847.92
2019-05-18T12:35:00.505Z,95849.28
2019-05-18T12:36:42.123Z,95847.66
2019-05-18T12:38:18.625Z,95851.36
2019-05-18T12:39:54.539Z,95852.83
2019-05-18T12:41:35.643Z,95848.03
2019-05-18T12:43:14.740Z,95851.84
2019-05-18T12:44:50.394Z,95847.13
2019-05-18T12:46:45.146Z,95846.73
2019-05-18T12:48:27.917Z,95852.03
2019-05-18T12:50:05.132Z,95850.38
2019-05-18T12:51:48.931Z,95852.67
2019-05-18T12:53:24.607Z,95851.91
2019-05-18T12:55:02.038Z,95847.14
2019-05-18T12:56:38.150Z,95843.74
2019-05-18T12:58:26.103Z,95840.90
2019-05-18T13:00:18.280Z,95840.22
2019-05-18T13:02:02.512Z,95845.75
2019-05-18T13:03:47.419Z,95841.27
2019-05-18T13:05:23.318Z,95840.78
2019-05-18T13:07:00.287Z,95839.00
2019-05-18T13:08:37.068Z,95834.42
2019-05-18T13:10:17.370Z,95828.61
2019-05-18T13:11:56.805Z,95832.02
2019-05-18T13:13:34.860Z,95828.97
2019-05-18T13:15:13.426Z,95831.40
2019-05-18T13:16:54.587Z,95830.25
2019-05-18T13:18:30.451Z,95827.38
2019-05-18T13:20:06.940Z,95822.60
2019-05-18T13:21:49.077Z,95822.70
2019-05-18T13:23:33.770Z,95811.94
2019-05-18T13:25:11.672Z,95817.56
2019-05-18T13:26:47.098Z,95815.27
2019-05-18T13:28:23.098Z,95809.01
2019-05-18T13:30:08.868Z,95807.31
2019-05-18T13:31:45.492Z,95807.60
2019-05-18T13:33:20.648Z,95801.84
2019-05-18T13:34:59.485Z,95806.87
2019-05-18T13:36:54.226Z,95801.53
2019-05-18T13:38:36.738Z,95796.34
2019-05-18T13:40:48.351Z,95793.83
2019-05-18T13:42:24.666Z,95795.99
2019-05-18T13:44:00.250Z,95799.38
2019-05-18T13:45:37.972Z,95789.47
2019-05-18T13:47:17.350Z,95786.08
2019-05-18T13:48:55.778Z,95786.83
2019-05-18T13:50:38.606Z,95785.63
2019-05-18T13:52:16.253Z,95785.92
2019-05-18T13:54:07.266Z,95788.91
2019-05-18T13:55:54.450Z,95786.72
2019-05-18T13:57:31.388Z,95787.45
2019-05-18T13:59:13.014Z,95794.84
2019-05-18T14:00:52.308Z,95781.92
2019-05-18T14:02:28.970Z,95780.33
2019-05-18T14:04:04.791Z,95784.61
2019-05-18T14:05:42.531Z,95782.67
2019-05-18T14:07:23.713Z,95787.76
2019-05-18T14:09:00.215Z,95787.59
2019-05-18T14:10:41.604Z,95783.73
2019-05-18T14:12:19.630Z,95785.73
2019-05-18T14:13:54.868Z,95789.48
2019-05-18T14:15:33.842Z,95788.34
2019-05-18T14:17:13.793Z,95784.25
2019-05-18T14:18:55.278Z,95784.34
2019-05-18T14:20:34.556Z,95794.73
2019-05-18T14:22:11.250Z,95790.23
2019-05-18T14:23:46.559Z,95794.83
2019-05-18T14:25:23.487Z,95792.47
2019-05-18T14:26:59.963Z,95791.11
2019-05-18T14:28:36.052Z,95786.59
2019-05-18T14:30:16.747Z,95785.41
2019-05-18T14:31:52.894Z,95785.78
2019-05-18T14:33:28.263Z,95781.75
2019-05-18T14:35:04.487Z,95786.47
2019-05-18T14:36:42.497Z,95782.45
2019-05-18T14:38:18.319Z,95777.42
2019-05-18T14:39:56.519Z,95784.34
2019-05-18T14:41:35.327Z,95783.86
2019-05-18T14:43:12.866Z,95783.20
2019-05-18T14:44:48.968Z,95778.67
2019-05-18T14:46:27.404Z,95778.48
2019-05-18T14:48:11.461Z,95775.78
2019-05-18T14:49:47.312Z,95779.74
2019-05-18T14:51:25.715Z,95775.42
2019-05-18T14:53:01.442Z,95778.05
2019-05-18T14:54:43.066Z,95778.84
2019-05-18T14:56:19.322Z,95780.63
2019-05-18T14:57:54.587Z,95787.70
2019-05-18T14:59:33.879Z,95787.03
2019-05-18T15:01:09.078Z,95789.66
2019-05-18T15:02:47.443Z,95793.27
2019-05-18T15:04:23.042Z,95787.37
2019-05-18T15:05:59.270Z,95781.84
2019-05-18T15:07:38.702Z,95791.08
2019-05-18T15:09:14.453Z,95792.44
2019-05-18T15:10:50.176Z,95788.33
2019-05-18T15:12:29.073Z,95790.67
2019-05-18T15:14:10.426Z,95785.64
2019-05-18T15:15:47.857Z,95786.64
2019-05-18T15:17:25.508Z,95798.29
2019-05-18T15:19:02.401Z,95793.32
2019-05-18T15:20:42.435Z,95803.70
2019-05-18T15:22:18.713Z,95806.73
2019-05-18T15:23:54.082Z,95814.69
2019-05-18T15:25:32.708Z,95808.59
2019-05-18T15:27:08.360Z,95811.73
2019-05-18T15:28:44.954Z,95813.08
2019-05-18T15:30:25.565Z,95813.83
2019-05-18T15:32:01.435Z,95806.20
2019-05-18T15:33:48.721Z,95806.64
2019-05-18T15:35:25.434Z,95804.39
2019-05-18T15:37:04.550Z,95809.09
2019-05-18T15:38:41.135Z,95814.08
2019-05-18T15:40:17.618Z,95815.70
2019-05-18T15:41:57.019Z,95819.97
2019-05-18T15:43:33.178Z,95824.14
2019-05-18T15:45:24.721Z,95824.38
2019-05-18T15:47:03.249Z,95826.09
2019-05-18T15:49:01.304Z,95824.98
2019-05-18T15:50:37.813Z,95825.45
2019-05-18T15:52:16.954Z,95822.68
2019-05-18T15:53:53.566Z,95817.44
2019-05-18T15:55:29.075Z,95812.25
2019-05-18T15:57:19.852Z,95820.69
2019-05-18T15:58:56.224Z,95815.52
2019-05-18T16:00:34.771Z,95823.76
2019-05-18T16:02:10.483Z,95823.77
2019-05-18T16:03:47.470Z,95822.39
2019-05-18T16:05:32.032Z,95824.18
2019-05-18T16:07:08.009Z,95826.26
2019-05-18T16:08:43.486Z,95823.83
2019-05-18T16:10:20.460Z,95815.09
2019-05-18T16:11:55.569Z,95818.95
2019-05-18T16:13:32.491Z,95824.07
2019-05-18T16:15:12.429Z,95823.86
2019-05-18T16:18:53.940Z,95817.58
2019-05-18T16:20:30.519Z,95817.34
2019-05-18T16:22:13.266Z,95821.73
2019-05-18T16:23:51.222Z,95819.98
2019-05-18T16:25:27.662Z,95822.19
2019-05-18T16:27:08.293Z,95814.15
2019-05-18T16:28:47.553Z,95815.66
2019-05-18T16:30:26.364Z,95815.69
2019-05-18T16:32:04.316Z,95816.69
2019-05-18T16:33:48.203Z,95811.88
2019-05-18T16:35:28.713Z,95808.53
2019-05-18T16:37:16.107Z,95809.53
2019-05-18T16:38:48.818Z,95814.33
2019-05-18T16:40:27.721Z,95817.66
2019-05-18T16:42:06.668Z,95815.47
2019-05-18T16:43:43.138Z,95814.73
2019-05-18T16:45:21.760Z,95803.70
2019-05-18T16:46:58.607Z,95813.03
2019-05-18T16:48:39.123Z,95808.26
2019-05-18T16:50:12.990Z,95803.06
2019-05-18T16:51:59.529Z,95797.94
2019-05-18T16:53:39.426Z,95801.91
2019-05-18T16:55:21.942Z,95803.48
2019-05-18T16:56:59.323Z,95804.05
2019-05-18T16:58:34.868Z,95805.25
2019-05-18T17:04:33.303Z,95809.05
2019-05-18T17:06:31.305Z,95811.55
2019-05-18T17:08:10.472Z,95804.00
2019-05-18T17:09:51.420Z,95804.80
2019-05-18T17:11:53.339Z,95802.55
2019-05-18T17:13:31.316Z,95803.98
2019-05-18T17:15:09.611Z,95807.05
2019-05-18T17:16:45.582Z,95810.12
2019-05-18T17:18:24.799Z,95811.09
2019-05-18T17:20:05.501Z,95806.22
2019-05-18T17:24:10.794Z,95809.52
2019-05-18T17:25:50.545Z,95806.36
2019-05-18T17:27:25.901Z,95804.02
2019-05-18T17:29:03.189Z,95806.36
2019-05-18T17:30:42.452Z,95807.94
2019-05-18T17:32:20.574Z,95811.09
2019-05-18T17:34:03.434Z,95803.78
2019-05-18T17:35:42.648Z,95809.13
2019-05-18T17:37:43.952Z,95811.55
2019-05-18T17:39:22.780Z,95805.20
2019-05-18T17:40:58.692Z,95807.68
2019-05-18T17:42:33.962Z,95811.33
2019-05-18T17:44:15.588Z,95816.85
2019-05-18T17:46:09.760Z,95814.36
2019-05-18T17:47:49.108Z,95814.53
2019-05-18T17:49:27.571Z,95813.78
2019-05-18T17:51:10.598Z,95815.55
2019-05-18T17:52:49.591Z,95819.89
2019-05-18T17:54:31.344Z,95815.19
2019-05-18T17:56:10.176Z,95814.82
2019-05-18T17:57:46.778Z,95817.30
2019-05-18T17:59:22.610Z,95819.19
2019-05-18T18:01:03.506Z,95820.57
2019-05-18T18:02:57.432Z,95829.77
2019-05-18T18:04:48.761Z,95819.30
2019-05-18T18:06:36.410Z,95818.36
2019-05-18T18:08:16.998Z,95822.13
2019-05-18T18:10:03.696Z,95817.22
2019-05-18T18:11:41.615Z,95823.92
2019-05-18T18:13:23.464Z,95825.99
2019-05-18T18:15:00.218Z,95825.64
2019-05-18T18:16:41.770Z,95824.74
2019-05-18T18:18:25.845Z,95818.05
2019-05-18T18:20:06.653Z,95828.73
2019-05-18T18:21:56.302Z,95824.84
2019-05-18T18:23:36.910Z,95827.03
2019-05-18T18:25:22.234Z,95822.82
2019-05-18T18:27:07.004Z,95828.41
2019-05-18T18:28:54.449Z,95829.13
2019-05-18T18:30:34.773Z,95835.31
2019-05-18T18:32:16.950Z,95831.92
2019-05-18T18:34:15.133Z,95838.81
2019-05-18T18:36:00.311Z,95832.74
2019-05-18T18:37:36.375Z,95843.47
2019-05-18T18:39:16.838Z,95845.95
2019-05-18T18:40:54.459Z,95851.30
2019-05-18T18:42:38.982Z,95849.52
2019-05-18T18:44:19.617Z,95855.80
2019-05-18T18:46:05.372Z,95852.70
2019-05-18T18:47:47.793Z,95853.99
2019-05-18T18:49:27.815Z,95858.17
2019-05-18T18:51:12.426Z,95855.92
2019-05-18T18:52:52.610Z,95860.25
2019-05-18T18:54:54.055Z,95871.02
2019-05-18T18:56:36.289Z,95863.17
2019-05-18T18:58:47.538Z,95871.89
2019-05-18T19:00:25.220Z,95868.69
2019-05-18T19:02:03.730Z,95871.53
2019-05-18T19:03:53.498Z,95873.85
2019-05-18T19:05:29.494Z,95871.14
2019-05-18T19:07:09.333Z,95875.53
2019-05-18T19:08:45.103Z,95872.15
2019-05-18T19:10:21.750Z,95872.19
2019-05-18T19:12:00.029Z,95873.35
2019-05-18T19:13:51.508Z,95873.35
2019-05-18T19:15:32.765Z,95879.13
2019-05-18T19:17:12.585Z,95867.97
2019-05-18T19:18:48.068Z,95872.11
2019-05-18T19:20:45.134Z,95870.50
2019-05-18T19:22:23.085Z,95870.37
2019-05-18T19:23:58.672Z,95873.63
2019-05-18T19:25:42.368Z,95876.89
2019-05-18T19:27:18.739Z,95879.30
2019-05-18T19:29:07.407Z,95880.80